Nearby METAR Reports

 

KBUF - Buffalo/Cheektow, New York, USA
Distance from station: 0 0mi, 0km
Updated: 09/21/2020 7:54am
Few Clouds
Few Clouds
 Wind from SE
Wind: SE 6 mph , 9 km/h
Temperature: 45°F , 7°C
Wind Chill: 42°F , 6°C
Dew Point: 32°F , 0°C
Humidity: 61%
Barometer: 30.56 inHg , 1034.9 hPa
Clouds: Few Clouds
Visibility: 10 miles , 16 km
Cloud details: Few Clouds 19000 ft
2020/09/21 11:54 KBUF 211154Z 14005KT 10SM FEW190 07/00 A3056 RMK AO2 SLP353 T00720000 10078 20061 53009
KIAG - Niagara Falls, New York, USA
Distance from station: NW 16mi, 26km
Updated: 09/21/2020 7:53am
Clear
Clear
 Wind from E
Wind: E 3 mph , 6 km/h
Temperature: 39°F , 4°C
Dew Point: 34°F , 1°C
Humidity: 81%
Barometer: 30.56 inHg , 1034.9 hPa
Clouds: Clear
Visibility: 10 miles , 16 km
2020/09/21 11:53 KIAG 211153Z 10003KT 10SM CLR 04/01 A3056 RMK AO2 SLP356 T00440011 10061 20033 53008 $
 
CWPC - Port Colborne(Au, Ontario, Canada
Distance from station: W 27mi, 43km
Updated: 09/21/2020 8:00am

 Wind from S
Wind: S 10 mph , 17 km/h
Temperature: 55°F , 13°C
Dew Point: 41°F , 5°C
Humidity: 59%
2020/09/21 12:00 CWPC 211200Z AUTO 17009KT 13/05 RMK AO1 SLP353 T01290049 53009
CYSN - St. Catharines A, Ontario, Canada
Distance from station: NW 29mi, 46km
Updated: 09/21/2020 8:00am
Few Clouds
Few Clouds
 Wind from E
Wind: E 3 mph , 6 km/h
Temperature: 45°F , 7°C
Dew Point: 39°F , 4°C
Humidity: 81%
Barometer: 30.54 inHg , 1034.2 hPa
Clouds: Few Clouds
Visibility: 15 miles , 24 km
Cloud details: Few Clouds 21000 ft
2020/09/21 12:00 CYSN 211200Z 08003KT 15SM FEW210 07/04 A3054 RMK CI2 SLP347
 
CWWZ - Port Weller (mar, Ontario, Canada
Distance from station: NW 33mi, 53km
Updated: 09/21/2020 8:00am

 Wind from SE
Wind: SE 5 mph , 7 km/h
Temperature: 52°F , 11°C
Dew Point: 43°F , 6°C
Humidity: 72%
2020/09/21 12:00 CWWZ 211200Z AUTO 13004KT 11/06 RMK AO1 SLP348 T01120056 53007
CXVN - Vineland (au8), Ontario, Canada
Distance from station: WNW 38mi, 61km
Updated: 09/21/2020 8:00am

 Wind from ESE
Wind: ESE 1 mph , 2 km/h
Temperature: 48°F , 9°C
Dew Point: 41°F , 5°C
Humidity: 76%
2020/09/21 12:00 CXVN 211200Z AUTO 11001KT 09/05 RMK AO1 SLP346 T00870049 53007
 
KDKK - Dunkirk, New York, USA
Distance from station: SW 41mi, 66km
Updated: 09/21/2020 7:53am
Clear
Clear
 Wind from S
Wind: S 13 mph , 20 km/h
Temperature: 54°F , 12°C
Dew Point: 36°F , 2°C
Humidity: 51%
Barometer: 30.55 inHg , 1034.5 hPa
Clouds: Clear
Visibility: 10 miles , 16 km
2020/09/21 11:53 KDKK 211153Z AUTO 17011KT 10SM CLR 12/02 A3055 RMK AO2 SLP346 T01220017 10122 20083 53009 $
KOLE - Olean, New York, USA
Distance from station: SSE 52mi, 83km
Updated: 09/21/2020 8:35am
Clear
Clear
 Wind from SSW
Wind: SSW 5 mph , 7 km/h
Temperature: 41°F , 5°C
Wind Chill: 38°F , 3°C
Dew Point: 30°F , -1°C
Humidity: 66%
Barometer: 30.57 inHg , 1035.2 hPa
Clouds: Clear
Visibility: 10 miles , 16 km
2020/09/21 12:35 KOLE 211235Z AUTO 21004KT 10SM CLR 05/M01 A3057 RMK AO2
 
KROC - Rochester, New York, USA
Distance from station: ENE 55mi, 88km
Updated: 09/21/2020 7:54am
Few Clouds
Few Clouds
 Wind from SW
Wind: SW 5 mph , 7 km/h
Temperature: 37°F , 3°C
Wind Chill: 33°F , 1°C
Dew Point: 36°F , 2°C
Humidity: 93%
Barometer: 30.59 inHg , 1035.9 hPa
Clouds: Few Clouds
Visibility: 10 miles , 16 km
Cloud details: Few Clouds 18000 ft
2020/09/21 11:54 KROC 211154Z 22004KT 10SM FEW180 03/02 A3059 RMK AO2 SLP366 T00330017 10039 20017 53008 $
KDSV - Dansville, New York, USA
Distance from station: ESE 57mi, 92km
Updated: 09/21/2020 7:54am
Clear
Clear
 Wind from SE
Wind: SE 10 mph , 17 km/h
Temperature: 37°F , 3°C
Wind Chill: 30°F , -1°C
Dew Point: 32°F , 0°C
Humidity: 81%
Barometer: 30.61 inHg , 1036.6 hPa
Clouds: Clear
Visibility: 10 miles , 16 km
2020/09/21 11:54 KDSV 211154Z AUTO 13009KT 10SM CLR 03/00 A3061 RMK AO2 SLP378 T00280000 10039 20017 53010
 
CWWB - Burlington Piers, Ontario, Canada
Distance from station: WNW 59mi, 94km
Updated: 09/21/2020 8:00am

 Wind from WNW
Wind: WNW 1 mph , 2 km/h
Temperature: 52°F , 11°C
Dew Point: 43°F , 6°C
Humidity: 72%
2020/09/21 12:00 CWWB 211200Z AUTO 29001KT 11/06 RMK AO1 SLP348 T01100055 53007
CYTZ - Toronto Il Vor, Ontario, Canada
Distance from station: NW 59mi, 95km
Updated: 09/21/2020 8:00am
Clear
Clear
 Wind from E
Wind: E 3 mph , 6 km/h
Temperature: 55°F , 13°C
Dew Point: 45°F , 7°C
Humidity: 67%
Barometer: 30.55 inHg , 1034.5 hPa
Clouds: Clear
Visibility: 9 miles , 14 km
2020/09/21 12:00 CYTZ 211200Z AUTO 09003KT 9SM CLR 13/07 A3055 RMK SLP348
 
CXTO - Toronto City, Ontario, Canada
Distance from station: NW 61mi, 98km
Updated: 09/21/2020 8:00am

 
Temperature: 50°F , 10°C
Dew Point: 39°F , 4°C
Humidity: 67%
2020/09/21 12:00 CXTO 211200Z AUTO 10/04 RMK AO1 SLP352 T00960041 53006
KJHW - Jamestown, New York, USA
Distance from station: SSW 62mi, 99km
Updated: 09/21/2020 7:56am
Clear
Clear
 Wind from S
Wind: S 3 mph , 6 km/h
Temperature: 41°F , 5°C
Dew Point: 34°F , 1°C
Humidity: 76%
Barometer: 30.57 inHg , 1035.2 hPa
Clouds: Clear
Visibility: 10 miles , 16 km
2020/09/21 11:56 KJHW 211156Z AUTO 18003KT 10SM CLR 05/01 A3057 RMK AO2 SLP364 T00500006 10072 20039 53008
 
CYHM - Hamilton Airport, Ontario, Canada
Distance from station: WNW 63mi, 101km
Updated: 09/21/2020 8:00am
Few Clouds
Few Clouds
 Wind from E
Wind: E 5 mph , 7 km/h
Temperature: 46°F , 8°C
Wind Chill: 44°F , 7°C
Dew Point: 41°F , 5°C
Humidity: 82%
Barometer: 30.54 inHg , 1034.2 hPa
Clouds: Few Clouds
Visibility: 15 miles , 24 km
Cloud details: Few Clouds 25000 ft
2020/09/21 12:00 CYHM 211200Z 09004KT 15SM FEW250 08/05 A3054 RMK CI1 SLP348
CXHM - Hamilton Rbg Cs, Ontario, Canada
Distance from station: WNW 64mi, 102km
Updated: 09/21/2020 8:00am

 Wind from calm
Wind: Calm
Temperature: 39°F , 4°C
Dew Point: 39°F , 4°C
Humidity: 100%
2020/09/21 12:00 CXHM 211200Z AUTO 00000KT 04/04 RMK AO1 SLP348 T00400035 53007
 
CYYZ - Toronto/Pearson, Ontario, Canada
Distance from station: NW 67mi, 108km
Updated: 09/21/2020 8:00am
Few Clouds
Few Clouds
 Wind from N
Wind: N 2 mph , 4 km/h
Temperature: 46°F , 8°C
Dew Point: 41°F , 5°C
Humidity: 82%
Barometer: 30.55 inHg , 1034.5 hPa
Clouds: Few Clouds
Visibility: 15 miles , 24 km
Cloud details: Few Clouds 25000 ft
2020/09/21 12:00 CYYZ 211200Z 36002KT 15SM FEW250 08/05 A3055 RMK CI1 SLP349
CYOO - Oshawa, Ontario, Canada
Distance from station: N 68mi, 110km
Updated: 09/21/2020 8:00am
Clear
Clear
 Wind from E
Wind: E 3 mph , 6 km/h
Temperature: 45°F , 7°C
Dew Point: 43°F , 6°C
Humidity: 93%
Barometer: 30.56 inHg , 1034.9 hPa
Clouds: Clear
Visibility: 9 miles , 14 km
2020/09/21 12:00 CYOO 211200Z AUTO 08003KT 9SM CLR 07/06 A3056 RMK SLP353
 
KELZ - Wellsville, New York, USA
Distance from station: SE 69mi, 111km
Updated: 09/21/2020 7:56am
Clear
Clear
 Wind from calm
Wind: Calm
Temperature: 36°F , 2°C
Dew Point: 30°F , -1°C
Humidity: 81%
Barometer: 30.58 inHg , 1035.6 hPa
Clouds: Clear
Visibility: 10 miles , 16 km
2020/09/21 11:56 KELZ 211156Z AUTO 00000KT 10SM CLR 02/M01 A3058 RMK AO2 SLP371 T00171006 10039 20006 53007 $
CWNC - Cobourg (mars), Ontario, Canada
Distance from station: NNE 76mi, 122km
Updated: 09/21/2020 8:00am

 Wind from NE
Wind: NE 3 mph , 6 km/h
Temperature: 48°F , 9°C
Dew Point: 41°F , 5°C
Humidity: 76%
2020/09/21 12:00 CWNC 211200Z AUTO 05003KT 09/05 RMK AO1 SLP358 T00900052 53006